createdAt,value
2022-08-04T00:00:12.826Z,25.30
2022-08-04T00:03:12.055Z,25.30
2022-08-04T00:06:03.706Z,25.30
2022-08-04T00:08:53.040Z,25.20
2022-08-04T00:11:27.092Z,25.20
2022-08-04T00:14:06.836Z,25.20
2022-08-04T00:16:39.103Z,25.10
2022-08-04T00:19:42.099Z,25.10
2022-08-04T00:22:11.089Z,25.00
2022-08-04T00:24:39.327Z,25.00
2022-08-04T00:27:08.715Z,24.90
2022-08-04T00:29:39.407Z,24.90
2022-08-04T00:32:08.906Z,24.90
2022-08-04T00:34:37.709Z,24.80
2022-08-04T00:37:06.524Z,24.80
2022-08-04T00:39:34.916Z,24.80
2022-08-04T00:42:34.467Z,24.80
2022-08-04T00:45:24.953Z,24.70
2022-08-04T00:48:32.128Z,24.70
2022-08-04T00:51:16.482Z,24.70
2022-08-04T00:54:15.344Z,24.60
2022-08-04T00:56:54.060Z,24.60
2022-08-04T00:59:42.574Z,24.60
2022-08-04T01:02:35.281Z,24.60
2022-08-04T01:05:24.951Z,24.50
2022-08-04T01:08:17.987Z,24.50
2022-08-04T01:11:12.601Z,24.40
2022-08-04T01:14:16.590Z,24.30
2022-08-04T01:16:54.629Z,24.30
2022-08-04T01:20:05.448Z,24.20
2022-08-04T01:23:17.998Z,24.10
2022-08-04T01:26:44.110Z,24.10
2022-08-04T01:29:16.250Z,24.10
2022-08-04T01:32:08.405Z,24.00
2022-08-04T01:34:43.557Z,24.10
2022-08-04T01:37:37.731Z,24.00
2022-08-04T01:40:07.946Z,24.10
2022-08-04T01:42:37.105Z,24.00
2022-08-04T01:45:10.822Z,24.10
2022-08-04T01:47:42.562Z,24.10
2022-08-04T01:50:12.965Z,24.00
2022-08-04T01:52:46.527Z,24.00
2022-08-04T01:55:18.222Z,24.00
2022-08-04T01:57:52.848Z,24.00
2022-08-04T02:00:23.659Z,24.00
2022-08-04T02:02:51.406Z,24.00
2022-08-04T02:05:22.224Z,24.00
2022-08-04T02:08:34.978Z,24.00
2022-08-04T02:11:15.946Z,24.00
2022-08-04T02:14:00.050Z,24.00
2022-08-04T02:16:40.272Z,24.00
2022-08-04T02:19:36.240Z,24.00
2022-08-04T02:22:10.052Z,24.00
2022-08-04T02:24:47.480Z,23.90
2022-08-04T02:27:15.261Z,23.90
2022-08-04T02:30:05.806Z,23.90
2022-08-04T02:32:39.813Z,23.90
2022-08-04T02:35:16.723Z,23.90
2022-08-04T02:38:12.092Z,23.90
2022-08-04T02:40:40.140Z,23.90
2022-08-04T02:43:08.579Z,23.90
2022-08-04T02:45:38.192Z,23.80
2022-08-04T02:48:28.980Z,23.80
2022-08-04T02:50:58.735Z,23.80
2022-08-04T02:53:27.101Z,23.80
2022-08-04T02:55:56.421Z,23.80
2022-08-04T02:58:29.052Z,23.70
2022-08-04T03:00:55.990Z,23.60
2022-08-04T03:03:43.440Z,23.60
2022-08-04T03:06:44.705Z,23.60
2022-08-04T03:09:35.298Z,23.60
2022-08-04T03:12:39.243Z,23.70
2022-08-04T03:15:21.039Z,23.70
2022-08-04T03:18:20.799Z,23.70
2022-08-04T03:21:22.577Z,23.60
2022-08-04T03:24:10.994Z,23.60
2022-08-04T03:26:53.114Z,23.70
2022-08-04T03:29:59.672Z,23.60
2022-08-04T03:33:15.759Z,23.60
2022-08-04T03:35:49.904Z,23.60
2022-08-04T03:38:57.145Z,23.60
2022-08-04T03:42:04.458Z,23.60
2022-08-04T03:45:24.950Z,23.60
2022-08-04T03:48:29.134Z,23.50
2022-08-04T03:51:47.198Z,23.50
2022-08-04T03:54:39.165Z,23.50
2022-08-04T03:57:34.540Z,23.50
2022-08-04T04:00:13.127Z,23.50
2022-08-04T04:03:35.485Z,23.50
2022-08-04T04:06:25.443Z,23.50
2022-08-04T04:09:21.368Z,23.50
2022-08-04T04:12:12.515Z,23.50
2022-08-04T04:15:35.956Z,23.50
2022-08-04T04:18:37.167Z,23.50
2022-08-04T04:21:27.095Z,23.50
2022-08-04T04:24:34.118Z,23.50
2022-08-04T04:27:29.002Z,23.50
2022-08-04T04:30:29.723Z,23.50
2022-08-04T04:33:18.854Z,23.50
2022-08-04T04:35:56.783Z,23.50
2022-08-04T04:38:45.732Z,23.50
2022-08-04T04:41:32.012Z,23.50
2022-08-04T04:44:12.702Z,23.50
2022-08-04T04:47:06.907Z,23.60
2022-08-04T04:49:46.982Z,23.50
2022-08-04T04:52:21.334Z,23.60
2022-08-04T04:55:06.130Z,23.60
2022-08-04T04:57:54.715Z,23.60
2022-08-04T05:00:26.600Z,23.60
2022-08-04T05:03:14.836Z,23.60
2022-08-04T05:06:11.345Z,23.60
2022-08-04T05:09:19.676Z,23.70
2022-08-04T05:12:44.923Z,23.70
2022-08-04T05:15:12.310Z,23.70
2022-08-04T05:17:42.380Z,23.70
2022-08-04T05:20:22.381Z,23.80
2022-08-04T05:23:05.717Z,23.80
2022-08-04T05:25:39.645Z,23.80
2022-08-04T05:28:36.827Z,23.80
2022-08-04T05:31:21.798Z,23.80
2022-08-04T05:34:09.519Z,23.90
2022-08-04T05:36:45.232Z,23.90
2022-08-04T05:39:23.485Z,23.90
2022-08-04T05:41:55.574Z,23.90
2022-08-04T05:44:27.374Z,23.90
2022-08-04T05:46:58.256Z,23.90
2022-08-04T05:49:29.399Z,23.90
2022-08-04T05:52:00.712Z,23.90
2022-08-04T05:54:31.281Z,23.80
2022-08-04T05:56:58.925Z,23.80
2022-08-04T05:59:26.906Z,23.90
2022-08-04T06:01:58.441Z,23.90
2022-08-04T06:04:45.388Z,23.90
2022-08-04T06:07:14.287Z,23.90
2022-08-04T06:09:42.257Z,23.90
2022-08-04T06:12:22.248Z,23.90
2022-08-04T06:14:55.112Z,23.90
2022-08-04T06:19:57.866Z,24.00
2022-08-04T06:20:34.900Z,24.00
2022-08-04T06:23:09.035Z,24.10
2022-08-04T06:25:45.026Z,24.10
2022-08-04T06:28:13.386Z,24.10
2022-08-04T06:30:41.224Z,24.10
2022-08-04T06:33:27.164Z,24.20
2022-08-04T06:35:55.966Z,24.30
2022-08-04T06:38:28.570Z,24.40
2022-08-04T06:40:58.139Z,24.60
2022-08-04T06:43:29.644Z,24.70
2022-08-04T06:46:02.351Z,24.90
2022-08-04T06:48:33.162Z,25.20
2022-08-04T06:51:27.653Z,25.50
2022-08-04T06:53:49.621Z,25.70
2022-08-04T06:56:19.846Z,25.70
2022-08-04T06:58:47.658Z,25.80
2022-08-04T07:01:17.372Z,26.00
2022-08-04T07:03:45.112Z,26.40
2022-08-04T07:06:18.988Z,26.90
2022-08-04T07:08:46.392Z,27.30
2022-08-04T07:11:13.863Z,27.70
2022-08-04T07:13:44.980Z,28.00
2022-08-04T07:16:15.873Z,28.10
2022-08-04T07:18:43.643Z,28.10
2022-08-04T07:21:19.971Z,28.40
2022-08-04T07:23:47.094Z,28.70
2022-08-04T07:26:16.545Z,29.00
2022-08-04T07:28:43.435Z,29.20
2022-08-04T07:31:34.544Z,29.30
2022-08-04T07:34:17.178Z,29.40
2022-08-04T07:36:55.366Z,29.10
2022-08-04T07:39:28.497Z,29.60
2022-08-04T07:42:01.720Z,29.80
2022-08-04T07:44:33.857Z,30.10
2022-08-04T07:47:03.409Z,30.20
2022-08-04T07:49:55.525Z,30.20
2022-08-04T07:52:18.322Z,30.10
2022-08-04T07:54:45.742Z,29.90
2022-08-04T07:57:20.985Z,30.00
2022-08-04T07:59:59.806Z,30.00
2022-08-04T08:02:27.440Z,30.10
2022-08-04T08:04:54.604Z,30.30
2022-08-04T08:07:21.725Z,30.50
2022-08-04T08:09:48.896Z,30.60
2022-08-04T08:12:37.370Z,31.10
2022-08-04T08:15:04.820Z,31.30
2022-08-04T08:17:31.907Z,31.40
2022-08-04T08:20:29.581Z,31.40
2022-08-04T08:22:57.737Z,31.20
2022-08-04T08:25:24.945Z,31.20
2022-08-04T08:27:55.737Z,31.20
2022-08-04T08:30:25.188Z,30.80
2022-08-04T08:33:02.114Z,30.70
2022-08-04T08:35:53.086Z,30.50
2022-08-04T08:38:55.948Z,30.50
2022-08-04T08:42:13.677Z,30.60
2022-08-04T08:45:07.786Z,30.70
2022-08-04T08:48:07.297Z,30.90
2022-08-04T08:50:51.534Z,30.90
2022-08-04T08:53:43.011Z,30.90
2022-08-04T08:56:40.417Z,30.80
2022-08-04T08:59:26.914Z,30.90
2022-08-04T09:02:18.520Z,31.10
2022-08-04T09:05:06.407Z,31.40
2022-08-04T09:07:55.051Z,31.40
2022-08-04T09:10:53.945Z,31.70
2022-08-04T09:13:28.257Z,31.80
2022-08-04T09:16:14.929Z,31.90
2022-08-04T09:18:47.292Z,31.90
2022-08-04T09:21:32.166Z,31.80
2022-08-04T09:25:00.145Z,31.70
2022-08-04T09:27:52.571Z,31.60
2022-08-04T09:30:22.440Z,31.40
2022-08-04T09:33:20.244Z,31.00
2022-08-04T09:36:29.989Z,30.90
2022-08-04T09:39:33.528Z,30.70
2022-08-04T09:42:29.342Z,30.50
2022-08-04T09:45:06.064Z,30.30
2022-08-04T09:47:57.600Z,30.10
2022-08-04T09:50:45.834Z,29.90
2022-08-04T09:53:50.018Z,29.50
2022-08-04T09:56:50.265Z,29.40
2022-08-04T10:00:06.399Z,29.20
2022-08-04T10:02:38.794Z,29.10
2022-08-04T10:05:10.385Z,28.90
2022-08-04T10:08:17.792Z,28.70
2022-08-04T10:11:09.362Z,28.70
2022-08-04T10:14:46.679Z,28.70
2022-08-04T10:17:35.728Z,28.60
2022-08-04T10:20:58.143Z,28.50
2022-08-04T10:24:00.397Z,28.50
2022-08-04T10:26:54.292Z,28.30
2022-08-04T10:29:46.973Z,28.30
2022-08-04T10:32:34.750Z,28.30
2022-08-04T10:35:19.042Z,28.40
2022-08-04T10:38:30.418Z,28.40
2022-08-04T10:41:18.674Z,28.50
2022-08-04T10:44:16.703Z,28.60
2022-08-04T10:46:57.784Z,28.70
2022-08-04T10:49:35.155Z,28.90
2022-08-04T10:52:20.860Z,29.10
2022-08-04T10:55:07.574Z,29.30
2022-08-04T10:57:47.329Z,29.40
2022-08-04T11:00:21.451Z,29.50
2022-08-04T11:03:12.682Z,29.80
2022-08-04T11:05:44.448Z,30.00
2022-08-04T11:08:38.738Z,30.20
2022-08-04T11:11:56.851Z,30.20
2022-08-04T11:14:58.605Z,30.30
2022-08-04T11:17:36.286Z,30.30
2022-08-04T11:20:38.086Z,30.50
2022-08-04T11:23:18.322Z,30.60
2022-08-04T11:25:52.736Z,30.70
2022-08-04T11:29:04.148Z,30.80
2022-08-04T11:31:46.210Z,30.90
2022-08-04T11:34:27.176Z,30.90
2022-08-04T11:37:22.184Z,30.90
2022-08-04T11:39:58.828Z,31.00
2022-08-04T11:42:36.713Z,31.00
2022-08-04T11:45:04.881Z,31.00
2022-08-04T11:48:00.740Z,31.10
2022-08-04T11:50:41.607Z,31.30
2022-08-04T11:53:11.336Z,31.30
2022-08-04T11:56:09.216Z,31.30
2022-08-04T11:58:26.396Z,31.40
2022-08-04T12:01:28.243Z,31.50
2022-08-04T12:04:52.366Z,31.50
2022-08-04T12:07:40.484Z,31.50
2022-08-04T12:10:37.909Z,31.60
2022-08-04T12:13:28.130Z,31.50
2022-08-04T12:16:16.010Z,31.60
2022-08-04T12:18:54.145Z,31.60
2022-08-04T12:21:44.202Z,31.70
2022-08-04T12:24:22.475Z,31.80
2022-08-04T12:26:58.386Z,31.90
2022-08-04T12:29:28.413Z,31.80
2022-08-04T12:32:05.738Z,31.90
2022-08-04T12:34:39.895Z,32.00
2022-08-04T12:38:02.923Z,32.10
2022-08-04T12:40:48.887Z,31.90
2022-08-04T12:43:44.409Z,31.90
2022-08-04T12:46:22.645Z,32.00
2022-08-04T12:48:50.613Z,31.60
2022-08-04T12:52:06.995Z,31.40
2022-08-04T12:54:10.253Z,31.20
2022-08-04T12:56:38.145Z,31.00
2022-08-04T12:59:12.521Z,31.00
2022-08-04T13:02:11.162Z,31.20
2022-08-04T13:04:38.247Z,31.50
2022-08-04T13:07:23.946Z,31.90
2022-08-04T13:09:52.376Z,32.00
2022-08-04T13:12:32.873Z,32.10
2022-08-04T13:15:19.176Z,32.10
2022-08-04T13:17:59.166Z,32.00
2022-08-04T13:20:36.772Z,31.90
2022-08-04T13:23:20.190Z,32.00
2022-08-04T13:26:42.295Z,32.00
2022-08-04T13:28:44.086Z,32.20
2022-08-04T13:31:23.229Z,32.20
2022-08-04T13:33:54.144Z,32.20
2022-08-04T13:36:26.319Z,32.20
2022-08-04T13:38:59.380Z,32.20
2022-08-04T13:41:31.163Z,32.00
2022-08-04T13:44:19.394Z,32.10
2022-08-04T13:46:59.552Z,32.20
2022-08-04T13:49:42.549Z,32.20
2022-08-04T13:52:13.658Z,32.20
2022-08-04T13:54:44.449Z,32.20
2022-08-04T13:57:30.279Z,32.10
2022-08-04T14:00:07.299Z,32.00
2022-08-04T14:03:19.228Z,32.00
2022-08-04T14:06:36.700Z,31.90
2022-08-04T14:09:23.132Z,31.70
2022-08-04T14:12:45.721Z,31.60
2022-08-04T14:15:00.672Z,31.60
2022-08-04T14:17:30.452Z,31.60
2022-08-04T14:20:04.614Z,31.60
2022-08-04T14:22:35.197Z,31.50
2022-08-04T14:25:15.951Z,31.50
2022-08-04T14:27:48.959Z,31.50
2022-08-04T14:30:37.191Z,31.40
2022-08-04T14:34:04.805Z,31.40
2022-08-04T14:36:01.521Z,31.60
2022-08-04T14:38:58.616Z,31.80
2022-08-04T14:41:45.624Z,31.90
2022-08-04T14:44:15.045Z,32.00
2022-08-04T14:46:56.113Z,32.10
2022-08-04T14:49:23.669Z,32.10
2022-08-04T14:52:01.619Z,32.10
2022-08-04T14:54:34.461Z,32.00
2022-08-04T14:57:05.205Z,31.80
2022-08-04T15:00:00.559Z,31.70
2022-08-04T15:02:30.574Z,31.70
2022-08-04T15:04:58.243Z,31.50
2022-08-04T15:07:25.658Z,31.20
2022-08-04T15:09:52.892Z,31.10
2022-08-04T15:12:20.956Z,30.90
2022-08-04T15:14:48.476Z,30.80
2022-08-04T15:17:30.241Z,30.60
2022-08-04T15:19:58.017Z,30.50
2022-08-04T15:22:25.166Z,30.40
2022-08-04T15:24:54.895Z,30.20
2022-08-04T15:27:28.545Z,30.10
2022-08-04T15:30:02.230Z,30.10
2022-08-04T15:32:54.604Z,30.10
2022-08-04T15:35:29.004Z,30.00
2022-08-04T15:38:10.531Z,30.20
2022-08-04T15:41:00.198Z,30.40
2022-08-04T15:43:55.496Z,30.50
2022-08-04T15:47:05.306Z,30.60
2022-08-04T15:49:33.679Z,30.40
2022-08-04T15:52:12.072Z,30.40
2022-08-04T15:54:42.167Z,30.50
2022-08-04T15:57:10.301Z,30.40
2022-08-04T16:00:00.431Z,30.40
2022-08-04T16:02:37.022Z,30.30
2022-08-04T16:05:18.232Z,30.30
2022-08-04T16:08:00.064Z,30.20
2022-08-04T16:10:29.929Z,30.20
2022-08-04T16:13:20.296Z,30.30
2022-08-04T16:16:03.089Z,30.30
2022-08-04T16:18:30.654Z,30.30
2022-08-04T16:21:17.990Z,30.10
2022-08-04T16:24:21.368Z,30.00
2022-08-04T16:26:56.243Z,30.00
2022-08-04T16:29:23.638Z,30.00
2022-08-04T16:32:05.849Z,29.90
2022-08-04T16:35:00.035Z,29.80
2022-08-04T16:37:39.020Z,29.80
2022-08-04T16:40:34.657Z,29.80
2022-08-04T16:43:09.195Z,29.80
2022-08-04T16:45:56.431Z,29.70
2022-08-04T16:48:29.838Z,29.50
2022-08-04T16:51:15.206Z,29.40
2022-08-04T16:53:57.745Z,29.40
2022-08-04T16:56:34.676Z,29.40
2022-08-04T16:59:12.041Z,29.40
2022-08-04T17:01:50.459Z,29.20
2022-08-04T17:04:18.009Z,29.10
2022-08-04T17:06:49.452Z,28.90
2022-08-04T17:09:19.518Z,28.90
2022-08-04T17:11:48.237Z,28.80
2022-08-04T17:14:26.401Z,28.70
2022-08-04T17:16:57.727Z,28.60
2022-08-04T17:19:26.500Z,28.60
2022-08-04T17:22:06.073Z,28.50
2022-08-04T17:24:39.001Z,28.40
2022-08-04T17:28:09.004Z,28.20
2022-08-04T17:29:55.137Z,27.90
2022-08-04T17:32:23.620Z,27.60
2022-08-04T17:34:54.143Z,27.50
2022-08-04T17:37:40.557Z,27.30
2022-08-04T17:40:25.876Z,27.30
2022-08-04T17:44:04.589Z,27.10
2022-08-04T17:46:28.451Z,27.00
2022-08-04T17:49:00.505Z,26.90
2022-08-04T17:52:04.165Z,26.80
2022-08-04T17:57:22.239Z,26.80
2022-08-04T17:59:58.325Z,26.80
2022-08-04T18:11:02.406Z,26.40
2022-08-04T18:13:29.504Z,26.50
2022-08-04T18:16:22.528Z,26.30
2022-08-04T18:19:13.624Z,26.30
2022-08-04T18:21:45.735Z,26.30
2022-08-04T18:24:14.939Z,26.20
2022-08-04T18:26:42.430Z,26.20
2022-08-04T18:29:31.832Z,26.20
2022-08-04T18:31:59.455Z,26.10
2022-08-04T18:34:27.507Z,26.10
2022-08-04T18:36:59.027Z,26.00
2022-08-04T18:40:17.290Z,26.00
2022-08-04T18:42:15.225Z,25.90
2022-08-04T18:44:51.998Z,25.80
2022-08-04T18:47:23.155Z,25.70
2022-08-04T18:50:39.987Z,25.70
2022-08-04T18:52:45.356Z,25.60
2022-08-04T18:55:57.085Z,25.50
2022-08-04T18:58:07.224Z,25.50
2022-08-04T19:00:48.397Z,25.40
2022-08-04T19:03:16.260Z,25.40
2022-08-04T19:05:49.023Z,25.20
2022-08-04T19:08:32.875Z,25.10
2022-08-04T19:11:37.684Z,25.10
2022-08-04T19:13:54.618Z,25.00
2022-08-04T19:16:29.519Z,24.90
2022-08-04T19:18:58.446Z,24.80
2022-08-04T19:21:58.634Z,24.70
2022-08-04T19:24:32.409Z,24.70
2022-08-04T19:27:07.274Z,24.70
2022-08-04T19:29:41.469Z,24.60
2022-08-04T19:32:14.863Z,24.60
2022-08-04T19:38:01.724Z,24.40
2022-08-04T19:40:33.554Z,24.40
2022-08-04T19:43:14.373Z,24.30
2022-08-04T19:45:44.965Z,24.30
2022-08-04T19:48:18.747Z,24.30
2022-08-04T19:50:48.798Z,24.20
2022-08-04T19:53:19.498Z,24.20
2022-08-04T19:55:49.415Z,24.30
2022-08-04T19:58:18.118Z,24.30
2022-08-04T20:00:51.124Z,24.30
2022-08-04T20:03:20.335Z,24.30
2022-08-04T20:05:53.826Z,24.30
2022-08-04T20:08:27.868Z,24.30
2022-08-04T20:10:56.116Z,24.30
2022-08-04T20:13:36.993Z,24.20
2022-08-04T20:16:28.829Z,24.10
2022-08-04T20:18:59.488Z,24.10
2022-08-04T20:21:54.379Z,24.10
2022-08-04T20:24:38.752Z,24.10
2022-08-04T20:27:08.943Z,24.10
2022-08-04T20:29:46.020Z,24.10
2022-08-04T20:32:13.658Z,24.10
2022-08-04T20:34:42.742Z,24.00
2022-08-04T20:37:10.484Z,23.90
2022-08-04T20:39:38.230Z,23.90
2022-08-04T20:42:05.875Z,23.90
2022-08-04T20:44:33.749Z,23.90
2022-08-04T20:47:00.812Z,23.90
2022-08-04T20:49:35.171Z,23.80
2022-08-04T20:52:13.328Z,23.80
2022-08-04T20:54:42.716Z,23.70
2022-08-04T20:57:16.641Z,23.70
2022-08-04T20:59:50.306Z,23.70
2022-08-04T21:02:27.045Z,23.60
2022-08-04T21:04:54.382Z,23.50
2022-08-04T21:07:22.984Z,23.50
2022-08-04T21:09:51.251Z,23.50
2022-08-04T21:12:27.624Z,23.40
2022-08-04T21:14:57.954Z,23.30
2022-08-04T21:17:58.898Z,23.30
2022-08-04T21:20:13.877Z,23.20
2022-08-04T21:22:41.007Z,23.20
2022-08-04T21:25:15.738Z,23.20
2022-08-04T21:27:44.416Z,23.20
2022-08-04T21:30:25.030Z,23.30
2022-08-04T21:32:55.282Z,23.30
2022-08-04T21:38:17.114Z,23.20
2022-08-04T21:41:01.756Z,23.20
2022-08-04T21:43:42.544Z,23.20
2022-08-04T21:46:11.412Z,23.30
2022-08-04T21:48:39.609Z,23.20
2022-08-04T21:51:21.686Z,23.20
2022-08-04T21:54:09.523Z,23.20
2022-08-04T21:56:39.230Z,23.10
2022-08-04T21:59:14.185Z,23.00
2022-08-04T22:01:50.316Z,23.00
2022-08-04T22:04:19.872Z,23.00
2022-08-04T22:06:47.575Z,23.00
2022-08-04T22:09:18.992Z,22.90
2022-08-04T22:11:50.496Z,22.90
2022-08-04T22:14:27.307Z,22.80
2022-08-04T22:16:57.641Z,22.80
2022-08-04T22:19:40.657Z,22.80
2022-08-04T22:22:12.665Z,22.80
2022-08-04T22:24:51.528Z,22.90
2022-08-04T22:27:36.754Z,22.90
2022-08-04T22:30:17.076Z,22.80
2022-08-04T22:32:46.299Z,22.80
2022-08-04T22:35:35.667Z,22.80
2022-08-04T22:38:06.649Z,22.70
2022-08-04T22:40:38.462Z,22.70
2022-08-04T22:43:22.603Z,22.70
2022-08-04T22:45:52.361Z,22.70
2022-08-04T22:48:19.535Z,22.70
2022-08-04T22:50:46.498Z,22.70
2022-08-04T22:53:18.100Z,22.50
2022-08-04T22:56:07.096Z,22.50
2022-08-04T22:58:32.570Z,22.50
2022-08-04T23:01:00.799Z,22.40
2022-08-04T23:03:36.957Z,22.40
2022-08-04T23:06:11.715Z,22.40
2022-08-04T23:08:43.029Z,22.40
2022-08-04T23:11:14.659Z,22.40
2022-08-04T23:13:42.076Z,22.40
2022-08-04T23:16:10.489Z,22.30
2022-08-04T23:18:42.226Z,22.30
2022-08-04T23:21:11.548Z,22.30
2022-08-04T23:23:47.713Z,22.30
2022-08-04T23:26:27.385Z,22.30
2022-08-04T23:28:55.967Z,22.20
2022-08-04T23:31:24.154Z,22.30
2022-08-04T23:33:52.423Z,22.20
2022-08-04T23:36:26.453Z,22.30
2022-08-04T23:39:00.527Z,22.30
2022-08-04T23:41:55.150Z,22.30
2022-08-04T23:44:23.480Z,22.30
2022-08-04T23:47:01.579Z,22.30
2022-08-04T23:49:44.394Z,22.30
2022-08-04T23:52:28.295Z,22.30
2022-08-04T23:54:58.865Z,22.20
2022-08-04T23:58:02.583Z,22.20
